createdAt,value
2023-01-25T00:01:54.123Z,15.35
2023-01-25T00:04:21.977Z,16.98
2023-01-25T00:06:49.311Z,16.88
2023-01-25T00:09:17.080Z,14.75
2023-01-25T00:11:44.303Z,15.70
2023-01-25T00:14:12.141Z,15.18
2023-01-25T00:16:40.114Z,16.25
2023-01-25T00:19:08.060Z,16.27
2023-01-25T00:21:36.848Z,18.48
2023-01-25T00:24:04.675Z,15.68
2023-01-25T00:26:32.730Z,18.63
2023-01-25T00:28:59.569Z,17.52
2023-01-25T00:31:51.333Z,17.13
2023-01-25T00:34:27.124Z,17.02
2023-01-25T00:37:06.590Z,16.73
2023-01-25T00:39:33.232Z,17.60
2023-01-25T00:42:00.949Z,24.17
2023-01-25T00:44:27.560Z,15.57
2023-01-25T00:46:54.148Z,16.88
2023-01-25T00:49:26.550Z,16.17
2023-01-25T00:51:54.499Z,35.25
2023-01-25T00:54:22.025Z,19.63
2023-01-25T00:56:48.801Z,18.92
2023-01-25T00:59:15.615Z,17.00
2023-01-25T01:01:42.504Z,16.77
2023-01-25T01:04:09.174Z,17.42
2023-01-25T01:06:37.045Z,19.05
2023-01-25T01:09:04.523Z,22.23
2023-01-25T01:11:31.733Z,20.50
2023-01-25T01:13:59.587Z,22.05
2023-01-25T01:16:27.087Z,16.20
2023-01-25T01:18:54.114Z,17.27
2023-01-25T01:21:20.932Z,17.02
2023-01-25T01:23:48.106Z,19.17
2023-01-25T01:26:16.457Z,17.15
2023-01-25T01:28:43.345Z,18.77
2023-01-25T01:31:15.454Z,19.02
2023-01-25T01:33:42.184Z,20.10
2023-01-25T01:36:14.189Z,15.93
2023-01-25T01:38:41.593Z,19.67
2023-01-25T01:41:09.074Z,16.85
2023-01-25T01:43:36.140Z,17.02
2023-01-25T01:46:09.992Z,17.70
2023-01-25T01:48:38.406Z,18.40
2023-01-25T01:51:27.235Z,17.63
2023-01-25T01:54:12.634Z,18.27
2023-01-25T01:56:58.115Z,14.82
2023-01-25T01:59:30.733Z,17.15
2023-01-25T02:01:57.379Z,18.30
2023-01-25T02:04:27.184Z,18.70
2023-01-25T02:07:11.759Z,18.55
2023-01-25T02:09:38.438Z,20.17
2023-01-25T02:12:07.448Z,19.60
2023-01-25T02:14:34.890Z,17.85
2023-01-25T02:17:01.643Z,18.20
2023-01-25T02:19:58.718Z,21.02
2023-01-25T02:22:44.386Z,16.10
2023-01-25T02:25:13.173Z,15.48
2023-01-25T02:27:46.211Z,15.18
2023-01-25T02:30:12.952Z,18.30
2023-01-25T02:32:39.731Z,18.17
2023-01-25T02:35:07.303Z,17.70
2023-01-25T02:37:34.191Z,16.52
2023-01-25T02:40:00.834Z,17.20
2023-01-25T02:42:31.142Z,18.02
2023-01-25T02:44:57.854Z,17.15
2023-01-25T02:47:24.486Z,16.50
2023-01-25T02:49:51.054Z,16.17
2023-01-25T02:52:17.671Z,18.50
2023-01-25T02:54:44.264Z,18.23
2023-01-25T02:57:10.869Z,16.40
2023-01-25T02:59:41.378Z,15.85
2023-01-25T03:02:09.000Z,18.20
2023-01-25T03:04:36.469Z,18.13
2023-01-25T03:07:07.550Z,19.30
2023-01-25T03:09:34.320Z,19.00
2023-01-25T03:12:00.913Z,17.05
2023-01-25T03:14:44.480Z,16.67
2023-01-25T03:17:11.785Z,19.10
2023-01-25T03:19:38.406Z,18.65
2023-01-25T03:22:06.767Z,17.67
2023-01-25T03:24:33.363Z,16.40
2023-01-25T03:27:13.251Z,22.88
2023-01-25T03:29:41.654Z,21.23
2023-01-25T03:32:09.045Z,18.00
2023-01-25T03:34:36.170Z,17.63
2023-01-25T03:37:03.241Z,15.85
2023-01-25T03:39:29.837Z,16.05
2023-01-25T03:41:56.432Z,14.82
2023-01-25T03:44:23.055Z,17.02
2023-01-25T03:46:49.727Z,14.63
2023-01-25T03:49:16.459Z,14.45
2023-01-25T03:51:43.063Z,14.43
2023-01-25T03:54:10.143Z,16.00
2023-01-25T03:56:37.788Z,15.82
2023-01-25T03:59:04.807Z,15.10
2023-01-25T04:01:31.382Z,14.88
2023-01-25T04:03:58.139Z,15.32
2023-01-25T04:06:24.708Z,13.88
2023-01-25T04:08:51.326Z,13.65
2023-01-25T04:11:17.889Z,12.88
2023-01-25T04:13:44.644Z,17.23
2023-01-25T04:16:12.121Z,15.05
2023-01-25T04:18:39.049Z,14.93
2023-01-25T04:21:05.844Z,15.38
2023-01-25T04:23:32.455Z,14.10
2023-01-25T04:26:05.767Z,14.32
2023-01-25T04:28:33.727Z,12.60
2023-01-25T04:31:00.842Z,13.50
2023-01-25T04:33:27.483Z,14.13
2023-01-25T04:35:54.092Z,14.95
2023-01-25T04:38:21.386Z,14.98
2023-01-25T04:40:48.011Z,16.58
2023-01-25T04:43:16.089Z,15.30
2023-01-25T04:45:42.936Z,15.93
2023-01-25T04:48:11.298Z,14.13
2023-01-25T04:50:39.233Z,16.55
2023-01-25T04:53:07.256Z,11.88
2023-01-25T04:55:34.919Z,14.07
2023-01-25T04:58:02.527Z,13.95
2023-01-25T05:00:39.240Z,15.93
2023-01-25T05:03:05.922Z,16.27
2023-01-25T05:05:32.645Z,14.13
2023-01-25T05:07:59.221Z,11.45
2023-01-25T05:10:25.821Z,15.35
2023-01-25T05:12:52.426Z,14.48
2023-01-25T05:15:19.098Z,14.85
2023-01-25T05:17:45.668Z,12.98
2023-01-25T05:20:12.585Z,13.00
2023-01-25T05:22:39.278Z,13.25
2023-01-25T05:25:26.319Z,15.13
2023-01-25T05:27:53.025Z,12.63
2023-01-25T05:30:19.656Z,14.70
2023-01-25T05:32:47.707Z,14.40
2023-01-25T05:35:14.384Z,13.93
2023-01-25T05:37:41.073Z,12.65
2023-01-25T05:40:08.557Z,12.70
2023-01-25T05:42:35.206Z,11.35
2023-01-25T05:45:01.947Z,14.95
2023-01-25T05:47:28.572Z,11.75
2023-01-25T05:49:55.158Z,12.98
2023-01-25T05:52:21.740Z,35.17
2023-01-25T05:54:49.287Z,21.67
2023-01-25T05:57:16.373Z,17.92
2023-01-25T05:59:43.074Z,14.27
2023-01-25T06:02:09.741Z,13.60
2023-01-25T06:04:36.452Z,13.98
2023-01-25T06:07:03.127Z,14.50
2023-01-25T06:09:29.682Z,12.10
2023-01-25T06:11:56.259Z,15.20
2023-01-25T06:14:23.763Z,15.05
2023-01-25T06:16:51.201Z,13.07
2023-01-25T06:19:19.400Z,15.48
2023-01-25T06:21:46.048Z,12.90
2023-01-25T06:24:12.859Z,14.00
2023-01-25T06:26:39.522Z,12.82
2023-01-25T06:29:06.891Z,14.68
2023-01-25T06:31:34.748Z,13.50
2023-01-25T06:34:04.467Z,13.65
2023-01-25T06:36:31.157Z,14.23
2023-01-25T06:38:57.804Z,14.10
2023-01-25T06:41:24.537Z,13.65
2023-01-25T06:43:52.181Z,13.88
2023-01-25T06:46:19.613Z,12.65
2023-01-25T06:48:46.299Z,14.00
2023-01-25T06:51:14.467Z,15.48
2023-01-25T06:53:44.743Z,14.82
2023-01-25T06:56:14.685Z,16.38
2023-01-25T06:58:41.741Z,13.85
2023-01-25T07:01:20.165Z,15.13
2023-01-25T07:03:51.379Z,16.50
2023-01-25T07:06:19.907Z,16.15
2023-01-25T07:08:47.244Z,14.88
2023-01-25T07:11:14.990Z,14.15
2023-01-25T07:13:42.984Z,13.57
2023-01-25T07:16:12.450Z,14.95
2023-01-25T07:18:40.479Z,14.10
2023-01-25T07:21:14.601Z,13.98
2023-01-25T07:23:41.846Z,12.27
2023-01-25T07:26:17.117Z,12.65
2023-01-25T07:28:44.773Z,14.38
2023-01-25T07:31:12.151Z,15.20
2023-01-25T07:33:39.339Z,14.85
2023-01-25T07:36:07.391Z,15.63
2023-01-25T07:38:34.685Z,16.05
2023-01-25T07:41:02.001Z,14.63
2023-01-25T07:43:29.395Z,15.80
2023-01-25T07:46:01.159Z,17.17
2023-01-25T07:48:28.460Z,15.00
2023-01-25T07:51:22.978Z,13.48
2023-01-25T07:53:54.384Z,15.10
2023-01-25T07:56:22.330Z,15.57
2023-01-25T07:58:49.692Z,15.80
2023-01-25T08:01:18.150Z,14.45
2023-01-25T08:03:45.619Z,13.32
2023-01-25T08:06:13.028Z,12.38
2023-01-25T08:08:46.293Z,14.73
2023-01-25T08:11:17.817Z,13.88
2023-01-25T08:13:46.237Z,18.60
2023-01-25T08:16:14.012Z,14.90
2023-01-25T08:18:43.178Z,18.52
2023-01-25T08:21:10.623Z,17.20
2023-01-25T08:23:37.698Z,14.02
2023-01-25T08:26:05.705Z,14.15
2023-01-25T08:28:32.754Z,13.95
2023-01-25T08:31:11.104Z,13.02
2023-01-25T08:33:38.365Z,13.07
2023-01-25T08:36:06.140Z,12.68
2023-01-25T08:38:33.204Z,15.88
2023-01-25T08:41:07.122Z,15.43
2023-01-25T08:43:34.283Z,11.93
2023-01-25T08:46:01.718Z,18.80
2023-01-25T08:48:28.745Z,14.93
2023-01-25T08:50:56.092Z,13.52
2023-01-25T08:53:23.368Z,12.98
2023-01-25T08:55:50.460Z,13.90
2023-01-25T08:58:19.772Z,18.17
2023-01-25T09:00:47.931Z,16.83
2023-01-25T09:03:15.021Z,11.73
2023-01-25T09:05:42.035Z,19.20
2023-01-25T09:08:10.960Z,27.77
2023-01-25T09:10:38.053Z,16.17
2023-01-25T09:13:08.428Z,15.65
2023-01-25T09:15:35.819Z,13.88
2023-01-25T09:18:02.940Z,14.70
2023-01-25T09:20:33.119Z,15.05
2023-01-25T09:23:01.596Z,12.88
2023-01-25T09:25:28.599Z,14.10
2023-01-25T09:28:11.457Z,15.32
2023-01-25T09:30:47.279Z,13.57
2023-01-25T09:33:17.454Z,12.60
2023-01-25T09:35:48.722Z,13.52
2023-01-25T09:38:15.739Z,12.77
2023-01-25T09:40:46.152Z,12.55
2023-01-25T09:43:24.706Z,15.15
2023-01-25T09:45:51.756Z,14.32
2023-01-25T09:48:35.575Z,12.95
2023-01-25T09:51:11.870Z,12.35
2023-01-25T09:53:41.707Z,12.85
2023-01-25T09:56:12.325Z,12.27
2023-01-25T09:58:41.723Z,15.93
2023-01-25T10:01:17.822Z,15.35
2023-01-25T10:03:54.991Z,15.13
2023-01-25T10:06:23.959Z,12.07
2023-01-25T10:09:04.473Z,13.55
2023-01-25T10:11:32.665Z,15.20
2023-01-25T10:14:00.252Z,13.50
2023-01-25T10:16:32.074Z,12.20
2023-01-25T10:19:09.096Z,11.45
2023-01-25T10:21:39.625Z,23.92
2023-01-25T10:24:25.259Z,19.10
2023-01-25T10:26:56.730Z,15.93
2023-01-25T10:29:27.193Z,14.07
2023-01-25T10:32:08.955Z,18.15
2023-01-25T10:34:54.333Z,11.35
2023-01-25T10:37:25.895Z,10.60
2023-01-25T10:39:55.123Z,12.90
2023-01-25T10:42:22.946Z,11.45
2023-01-25T10:44:49.963Z,11.25
2023-01-25T10:47:20.144Z,12.50
2023-01-25T10:49:48.496Z,11.20
2023-01-25T10:52:23.088Z,12.18
2023-01-25T10:55:07.615Z,12.00
2023-01-25T10:57:36.206Z,11.85
2023-01-25T11:00:07.323Z,15.25
2023-01-25T11:02:48.582Z,17.38
2023-01-25T11:05:21.616Z,12.63
2023-01-25T11:07:49.415Z,13.27
2023-01-25T11:10:34.799Z,12.88
2023-01-25T11:13:15.385Z,12.45
2023-01-25T11:15:46.166Z,15.57
2023-01-25T11:18:14.778Z,11.63
2023-01-25T11:20:41.801Z,12.88
2023-01-25T11:23:29.100Z,12.43
2023-01-25T11:26:11.331Z,25.60
2023-01-25T11:28:38.497Z,17.13
2023-01-25T11:31:06.611Z,12.75
2023-01-25T11:33:33.663Z,11.63
2023-01-25T11:36:20.010Z,11.95
2023-01-25T11:39:07.317Z,13.35
2023-01-25T11:41:39.452Z,14.88
2023-01-25T11:44:06.451Z,13.40
2023-01-25T11:46:37.306Z,15.40
2023-01-25T11:49:05.517Z,13.32
2023-01-25T11:51:54.835Z,11.50
2023-01-25T11:54:30.964Z,12.98
2023-01-25T11:56:59.718Z,14.00
2023-01-25T11:59:42.123Z,11.63
2023-01-25T12:02:15.266Z,11.30
2023-01-25T12:04:42.415Z,12.13
2023-01-25T12:07:16.882Z,13.15
2023-01-25T12:09:53.710Z,10.57
2023-01-25T12:12:35.747Z,16.00
2023-01-25T12:15:21.713Z,15.02
2023-01-25T12:17:51.749Z,14.80
2023-01-25T12:20:32.051Z,12.07
2023-01-25T12:23:17.521Z,13.73
2023-01-25T12:26:03.562Z,11.23
2023-01-25T12:28:37.256Z,13.57
2023-01-25T12:31:09.154Z,15.23
2023-01-25T12:34:03.771Z,14.15
2023-01-25T12:36:37.072Z,13.23
2023-01-25T12:39:16.212Z,13.38
2023-01-25T12:41:50.302Z,12.60
2023-01-25T12:44:26.202Z,15.23
2023-01-25T12:47:15.290Z,13.07
2023-01-25T12:49:48.445Z,15.13
2023-01-25T12:52:30.797Z,15.15
2023-01-25T12:55:00.371Z,15.38
2023-01-25T12:57:27.448Z,15.80
2023-01-25T13:00:14.086Z,12.77
2023-01-25T13:02:53.151Z,14.10
2023-01-25T13:05:20.201Z,15.95
2023-01-25T13:08:03.246Z,14.32
2023-01-25T13:10:32.749Z,13.55
2023-01-25T13:13:03.892Z,16.52
2023-01-25T13:15:37.170Z,16.50
2023-01-25T13:18:36.047Z,15.20
2023-01-25T13:21:05.053Z,14.93
2023-01-25T13:23:33.871Z,18.23
2023-01-25T13:26:19.699Z,17.08
2023-01-25T13:28:46.807Z,13.70
2023-01-25T13:31:29.920Z,13.73
2023-01-25T13:34:00.057Z,13.60
2023-01-25T13:36:45.645Z,15.73
2023-01-25T13:39:24.887Z,14.55
2023-01-25T13:42:01.967Z,16.55
2023-01-25T13:44:30.173Z,14.32
2023-01-25T13:47:01.934Z,17.30
2023-01-25T13:49:35.148Z,13.95
2023-01-25T13:52:02.724Z,17.05
2023-01-25T13:54:31.137Z,17.45
2023-01-25T13:57:05.065Z,18.80
2023-01-25T13:59:32.189Z,14.20
2023-01-25T14:02:00.004Z,15.68
2023-01-25T14:04:27.959Z,18.77
2023-01-25T14:06:59.983Z,12.98
2023-01-25T14:09:27.093Z,13.88
2023-01-25T14:11:58.830Z,13.32
2023-01-25T14:14:27.225Z,14.10
2023-01-25T14:17:23.678Z,15.45
2023-01-25T14:19:53.679Z,14.70
2023-01-25T14:22:28.250Z,17.33
2023-01-25T14:25:22.336Z,18.35
2023-01-25T14:27:51.393Z,15.80
2023-01-25T14:30:28.697Z,15.43
2023-01-25T14:32:56.887Z,17.20
2023-01-25T14:35:43.175Z,17.38
2023-01-25T14:38:28.121Z,16.90
2023-01-25T14:41:18.425Z,15.10
2023-01-25T14:43:50.018Z,15.95
2023-01-25T14:46:23.217Z,17.27
2023-01-25T14:48:51.892Z,15.02
2023-01-25T14:51:27.799Z,12.70
2023-01-25T14:54:18.215Z,16.75
2023-01-25T14:56:46.894Z,17.55
2023-01-25T14:59:31.304Z,17.70
2023-01-25T15:02:00.342Z,16.52
2023-01-25T15:04:27.464Z,16.95
2023-01-25T15:06:57.400Z,15.45
2023-01-25T15:09:31.110Z,18.05
2023-01-25T15:12:02.602Z,15.75
2023-01-25T15:14:29.657Z,15.93
2023-01-25T15:16:56.899Z,18.35
2023-01-25T15:19:30.898Z,21.80
2023-01-25T15:21:59.663Z,19.38
2023-01-25T15:24:27.664Z,18.52
2023-01-25T15:26:55.587Z,19.40
2023-01-25T15:29:25.722Z,18.02
2023-01-25T15:31:53.477Z,15.52
2023-01-25T15:34:22.037Z,17.52
2023-01-25T15:36:49.285Z,21.63
2023-01-25T15:39:17.760Z,35.20
2023-01-25T15:41:45.172Z,17.70
2023-01-25T15:44:12.708Z,21.05
2023-01-25T15:46:45.463Z,15.88
2023-01-25T15:49:18.033Z,17.02
2023-01-25T15:51:45.112Z,16.77
2023-01-25T15:54:12.128Z,17.73
2023-01-25T15:56:41.055Z,17.50
2023-01-25T15:59:09.299Z,20.00
2023-01-25T16:01:36.434Z,20.38
2023-01-25T16:04:03.515Z,18.15
2023-01-25T16:06:48.375Z,17.63
2023-01-25T16:09:22.969Z,14.77
2023-01-25T16:11:57.006Z,20.50
2023-01-25T16:14:28.926Z,18.13
2023-01-25T16:16:57.230Z,17.15
2023-01-25T16:19:24.888Z,16.48
2023-01-25T16:21:52.347Z,17.95
2023-01-25T16:24:19.503Z,17.20
2023-01-25T16:26:52.450Z,16.95
2023-01-25T16:29:19.493Z,19.63
2023-01-25T16:31:46.635Z,22.80
2023-01-25T16:34:13.706Z,17.80
2023-01-25T16:36:41.275Z,17.20
2023-01-25T16:39:16.394Z,18.75
2023-01-25T16:41:43.410Z,23.70
2023-01-25T16:44:10.419Z,21.15
2023-01-25T16:46:37.555Z,18.88
2023-01-25T16:49:06.707Z,19.33
2023-01-25T16:51:33.984Z,15.70
2023-01-25T16:54:01.139Z,21.67
2023-01-25T16:56:32.568Z,17.23
2023-01-25T16:59:03.816Z,17.30
2023-01-25T17:01:30.943Z,17.35
2023-01-25T17:03:58.282Z,15.95
2023-01-25T17:06:26.569Z,19.63
2023-01-25T17:08:55.996Z,15.95
2023-01-25T17:11:23.404Z,14.95
2023-01-25T17:13:51.247Z,14.90
2023-01-25T17:16:19.095Z,18.98
2023-01-25T17:18:46.573Z,16.25
2023-01-25T17:21:19.245Z,15.93
2023-01-25T17:23:46.356Z,15.07
2023-01-25T17:26:14.465Z,19.83
2023-01-25T17:28:42.011Z,19.42
2023-01-25T17:31:19.877Z,20.25
2023-01-25T17:33:47.079Z,17.27
2023-01-25T17:36:15.246Z,18.08
2023-01-25T17:38:42.450Z,16.33
2023-01-25T17:41:10.857Z,16.45
2023-01-25T17:43:37.916Z,17.50
2023-01-25T17:46:11.857Z,17.23
2023-01-25T17:48:38.955Z,15.80
2023-01-25T17:51:06.150Z,19.88
2023-01-25T17:53:33.354Z,20.95
2023-01-25T17:56:03.935Z,17.67
2023-01-25T17:58:31.832Z,16.58
2023-01-25T18:01:11.936Z,24.52
2023-01-25T18:03:40.423Z,22.98
2023-01-25T18:06:10.448Z,20.23
2023-01-25T18:08:38.378Z,20.55
2023-01-25T18:11:08.624Z,19.67
2023-01-25T18:13:38.347Z,17.65
2023-01-25T18:16:06.944Z,24.13
2023-01-25T18:18:34.021Z,19.30
2023-01-25T18:21:09.000Z,16.63
2023-01-25T18:23:38.024Z,23.75
2023-01-25T18:26:06.432Z,17.80
2023-01-25T18:28:34.014Z,17.88
2023-01-25T18:31:02.583Z,17.55
2023-01-25T18:33:29.723Z,21.10
2023-01-25T18:36:00.826Z,19.23
2023-01-25T18:38:29.692Z,17.98
2023-01-25T18:40:57.357Z,16.70
2023-01-25T18:43:24.473Z,20.85
2023-01-25T18:45:58.567Z,16.45
2023-01-25T18:48:32.454Z,17.55
2023-01-25T18:51:00.729Z,19.27
2023-01-25T18:53:27.954Z,18.42
2023-01-25T18:56:14.531Z,18.67
2023-01-25T18:58:41.939Z,19.55
2023-01-25T19:01:16.160Z,18.40
2023-01-25T19:03:44.101Z,17.13
2023-01-25T19:06:11.304Z,20.85
2023-01-25T19:08:43.138Z,19.42
2023-01-25T19:11:12.185Z,20.73
2023-01-25T19:13:40.058Z,22.60
2023-01-25T19:16:15.019Z,27.45
2023-01-25T19:18:46.125Z,20.17
2023-01-25T19:21:24.734Z,23.77
2023-01-25T19:23:52.488Z,23.85
2023-01-25T19:26:20.525Z,18.10
2023-01-25T19:28:48.338Z,22.77
2023-01-25T19:31:16.517Z,19.92
2023-01-25T19:33:43.885Z,21.33
2023-01-25T19:36:16.565Z,21.90
2023-01-25T19:38:43.648Z,20.98
2023-01-25T19:41:14.833Z,24.17
2023-01-25T19:43:41.928Z,20.70
2023-01-25T19:46:14.838Z,19.73
2023-01-25T19:48:42.364Z,20.25
2023-01-25T19:51:12.433Z,18.17
2023-01-25T19:53:40.133Z,17.05
2023-01-25T19:56:08.209Z,23.83
2023-01-25T19:58:35.788Z,21.30
2023-01-25T20:01:06.735Z,20.33
2023-01-25T20:03:33.869Z,19.55
2023-01-25T20:06:02.676Z,17.27
2023-01-25T20:08:33.462Z,22.40
2023-01-25T20:11:04.653Z,19.77
2023-01-25T20:13:31.697Z,20.50
2023-01-25T20:15:58.913Z,19.25
2023-01-25T20:18:26.491Z,22.15
2023-01-25T20:20:57.293Z,21.40
2023-01-25T20:23:24.813Z,23.42
2023-01-25T20:26:03.067Z,21.70
2023-01-25T20:28:30.451Z,26.50
2023-01-25T20:30:59.393Z,19.85
2023-01-25T20:33:26.477Z,23.73
2023-01-25T20:35:55.043Z,24.67
2023-01-25T20:38:22.194Z,24.23
2023-01-25T20:40:49.552Z,20.35
2023-01-25T20:43:16.629Z,22.92
2023-01-25T20:45:43.702Z,22.95
2023-01-25T20:48:10.734Z,22.48
2023-01-25T20:50:37.739Z,20.25
2023-01-25T20:53:05.056Z,22.27
2023-01-25T20:55:32.071Z,25.27
2023-01-25T20:57:59.287Z,24.75
2023-01-25T21:00:26.457Z,28.73
2023-01-25T21:02:53.654Z,21.00
2023-01-25T21:05:20.692Z,22.38
2023-01-25T21:07:47.726Z,22.45
2023-01-25T21:10:14.850Z,21.23
2023-01-25T21:12:41.994Z,23.33
2023-01-25T21:15:09.782Z,28.73
2023-01-25T21:17:38.785Z,28.67
2023-01-25T21:20:06.921Z,26.80
2023-01-25T21:22:33.978Z,22.83
2023-01-25T21:25:01.055Z,20.10
2023-01-25T21:27:29.614Z,21.98
2023-01-25T21:29:57.095Z,23.30
2023-01-25T21:32:24.143Z,23.40
2023-01-25T21:34:51.231Z,22.95
2023-01-25T21:37:18.283Z,22.80
2023-01-25T21:39:45.395Z,25.35
2023-01-25T21:42:12.466Z,27.30
2023-01-25T21:44:57.997Z,24.10
2023-01-25T21:47:30.380Z,28.77
2023-01-25T21:50:16.579Z,23.10
2023-01-25T21:52:43.603Z,24.23
2023-01-25T21:55:10.633Z,29.23
2023-01-25T21:57:46.135Z,21.90
2023-01-25T22:00:14.320Z,21.50
2023-01-25T22:02:41.423Z,25.60
2023-01-25T22:05:08.579Z,23.38
2023-01-25T22:07:35.720Z,26.30
2023-01-25T22:10:02.762Z,23.52
2023-01-25T22:12:29.829Z,20.70
2023-01-25T22:14:56.842Z,25.88
2023-01-25T22:17:25.511Z,27.33
2023-01-25T22:19:52.562Z,27.48
2023-01-25T22:22:19.597Z,22.83
2023-01-25T22:24:47.315Z,22.35
2023-01-25T22:27:17.417Z,23.02
2023-01-25T22:29:44.503Z,22.73
2023-01-25T22:32:11.599Z,23.25
2023-01-25T22:34:38.662Z,22.08
2023-01-25T22:37:05.686Z,23.25
2023-01-25T22:39:32.714Z,22.42
2023-01-25T22:41:59.784Z,25.73
2023-01-25T22:44:26.789Z,25.15
2023-01-25T22:46:53.879Z,23.65
2023-01-25T22:49:20.960Z,24.40
2023-01-25T22:51:48.041Z,26.45
2023-01-25T22:54:15.067Z,24.98
2023-01-25T22:56:43.238Z,23.80
2023-01-25T22:59:14.218Z,20.33
2023-01-25T23:01:41.220Z,26.10
2023-01-25T23:04:08.380Z,25.25
2023-01-25T23:06:35.440Z,24.05
2023-01-25T23:09:03.375Z,24.52
2023-01-25T23:11:36.855Z,24.27
2023-01-25T23:14:23.548Z,26.45
2023-01-25T23:16:50.583Z,25.48
2023-01-25T23:19:17.635Z,26.98
2023-01-25T23:21:44.948Z,22.92
2023-01-25T23:24:12.486Z,28.00
2023-01-25T23:26:40.789Z,23.00
2023-01-25T23:29:09.339Z,26.02
2023-01-25T23:31:36.655Z,25.65
2023-01-25T23:34:05.252Z,22.77
2023-01-25T23:36:33.566Z,25.02
2023-01-25T23:39:00.811Z,26.83
2023-01-25T23:41:29.132Z,26.20
2023-01-25T23:43:56.553Z,23.20
2023-01-25T23:46:24.271Z,26.35
2023-01-25T23:48:51.614Z,24.20
2023-01-25T23:51:18.927Z,27.65
2023-01-25T23:53:58.248Z,31.35
2023-01-25T23:56:25.312Z,26.95
2023-01-25T23:58:52.327Z,28.55
